Time;durP1;ratioP1;P1;durP2;ratioP2;P2;SDS_P1;SDS_P2;PMS_P1;PMS_P2;Temp;Humidity;BMP_temperature;BMP_pressure;BME280_temperature;BME280_humidity;BME280_pressure;Samples;Min_cycle;Max_cycle;Signal;HPM_P1;HPM_P2
2023/04/24 00:01:16;;;;;;;5.43;4.22;;;;;;;;;;4821351;29;20396;-81
2023/04/24 00:03:42;;;;;;;3.95;3.10;;;;;;;;;;4814911;29;20049;-81
2023/04/24 00:06:09;;;;;;;6.07;3.05;;;;;;;;;;4804186;29;20433;-81
2023/04/24 00:08:35;;;;;;;4.88;3.35;;;;;;;;;;4808600;29;20023;-82
2023/04/24 00:11:02;;;;;;;6.88;3.35;;;;;;;;;;4815691;29;20038;-81
2023/04/24 00:13:30;;;;;;;3.90;3.35;;;;;;;;;;4816465;29;20049;-81
2023/04/24 00:15:57;;;;;;;5.10;3.67;;;;;;;;;;4818573;29;20034;-81
2023/04/24 00:18:23;;;;;;;4.85;3.53;;;;;;;;;;4812306;29;20038;-80
2023/04/24 00:20:49;;;;;;;5.72;3.35;;;;;;;;;;4822405;29;20035;-80
2023/04/24 00:23:15;;;;;;;4.78;3.72;;;;;;;;;;4818911;29;20046;-81
2023/04/24 00:25:41;;;;;;;5.40;3.70;;;;;;;;;;4815382;29;20046;-81
2023/04/24 00:28:07;;;;;;;5.90;3.53;;;;;;;;;;4818711;29;20092;-81
2023/04/24 00:30:33;;;;;;;7.78;3.85;;;;;;;;;;4808108;29;20099;-81
2023/04/24 00:32:59;;;;;;;4.85;3.90;;;;;;;;;;4821216;29;20491;-80
2023/04/24 00:35:25;;;;;;;4.20;3.58;;;;;;;;;;4814410;29;20082;-81
2023/04/24 00:37:51;;;;;;;5.35;3.67;;;;;;;;;;4817935;29;20030;-81
2023/04/24 00:40:17;;;;;;;5.28;3.47;;;;;;;;;;4817935;29;20038;-81
2023/04/24 00:42:44;;;;;;;5.75;3.70;;;;;;;;;;4820171;29;20083;-81
2023/04/24 00:45:11;;;;;;;7.90;2.97;;;;;;;;;;4817906;29;20455;-82
2023/04/24 00:47:37;;;;;;;2.92;2.72;;;;;;;;;;4809342;29;20030;-82
2023/04/24 00:50:04;;;;;;;2.55;2.35;;;;;;;;;;4809030;29;20275;-82
2023/04/24 00:52:32;;;;;;;2.75;2.50;;;;;;;;;;4821067;29;20554;-82
2023/04/24 00:54:59;;;;;;;2.60;2.40;;;;;;;;;;4820142;29;20129;-82
2023/04/24 00:57:25;;;;;;;3.25;1.92;;;;;;;;;;4811735;29;20050;-81
2023/04/24 00:59:52;;;;;;;2.47;2.28;;;;;;;;;;4824445;29;20085;-82
2023/04/24 01:02:18;;;;;;;2.33;2.13;;;;;;;;;;4821942;29;20077;-81
2023/04/24 01:04:44;;;;;;;2.65;2.15;;;;;;;;;;4813091;29;20042;-79
2023/04/24 01:07:11;;;;;;;2.20;2.00;;;;;;;;;;4820644;29;23043;-80
2023/04/24 01:09:41;;;;;;;2.28;2.08;;;;;;;;;;4809233;29;20761;-80
2023/04/24 01:12:08;;;;;;;2.00;1.90;;;;;;;;;;4811142;29;20027;-80
2023/04/24 01:14:34;;;;;;;1.83;1.73;;;;;;;;;;4819157;29;20031;-81
2023/04/24 01:17:00;;;;;;;3.17;2.00;;;;;;;;;;4821030;29;20496;-80
2023/04/24 01:19:26;;;;;;;2.20;2.03;;;;;;;;;;4816234;29;20038;-80
2023/04/24 01:21:54;;;;;;;4.70;2.80;;;;;;;;;;4819967;29;20042;-80
2023/04/24 01:24:20;;;;;;;2.10;1.90;;;;;;;;;;4814039;29;20076;-80
2023/04/24 01:26:46;;;;;;;5.32;2.20;;;;;;;;;;4820280;29;20046;-81
2023/04/24 01:29:13;;;;;;;2.28;2.08;;;;;;;;;;4816164;29;20496;-80
2023/04/24 01:31:39;;;;;;;3.15;2.85;;;;;;;;;;4813144;29;20531;-80
2023/04/24 01:34:07;;;;;;;3.03;2.10;;;;;;;;;;4811768;29;20047;-80
2023/04/24 01:36:36;;;;;;;2.38;2.17;;;;;;;;;;4820855;29;20042;-79
2023/04/24 01:39:03;;;;;;;6.50;2.30;;;;;;;;;;4817669;29;20031;-80
2023/04/24 01:41:29;;;;;;;2.88;2.20;;;;;;;;;;4812132;29;20031;-80
2023/04/24 01:43:55;;;;;;;2.85;2.65;;;;;;;;;;4817339;29;20050;-80
2023/04/24 01:46:21;;;;;;;2.20;2.00;;;;;;;;;;4816314;29;20126;-80
2023/04/24 01:48:47;;;;;;;3.70;2.75;;;;;;;;;;4817823;29;20113;-80
2023/04/24 01:51:13;;;;;;;7.43;2.40;;;;;;;;;;4819255;29;20391;-80
2023/04/24 01:53:39;;;;;;;3.20;2.40;;;;;;;;;;4821592;29;20038;-80
2023/04/24 01:56:05;;;;;;;6.18;2.72;;;;;;;;;;4810029;29;20082;-79
2023/04/24 01:58:32;;;;;;;2.70;2.42;;;;;;;;;;4820349;29;20066;-79
2023/04/24 02:00:59;;;;;;;3.03;2.80;;;;;;;;;;4816021;29;20117;-78
2023/04/24 02:03:25;;;;;;;3.92;3.33;;;;;;;;;;4813902;29;20043;-79
2023/04/24 02:05:51;;;;;;;3.65;3.35;;;;;;;;;;4809011;29;20050;-80
2023/04/24 02:08:17;;;;;;;4.35;3.97;;;;;;;;;;4823654;29;20046;-80
2023/04/24 02:10:44;;;;;;;6.10;4.18;;;;;;;;;;4821267;29;20050;-79
2023/04/24 02:13:10;;;;;;;5.30;4.47;;;;;;;;;;4814073;29;20385;-80
2023/04/24 02:15:36;;;;;;;5.65;5.15;;;;;;;;;;4811026;29;20483;-80
2023/04/24 02:18:02;;;;;;;5.10;4.45;;;;;;;;;;4816671;29;20113;-80
2023/04/24 02:20:28;;;;;;;6.30;4.85;;;;;;;;;;4818768;29;20117;-80
2023/04/24 02:22:54;;;;;;;5.65;5.15;;;;;;;;;;4822032;29;20127;-79
2023/04/24 02:25:21;;;;;;;5.25;4.85;;;;;;;;;;4815031;29;20039;-79
2023/04/24 02:27:47;;;;;;;6.05;5.03;;;;;;;;;;4820435;29;20109;-80
2023/04/24 02:30:13;;;;;;;6.18;5.25;;;;;;;;;;4820498;29;20118;-80
2023/04/24 02:32:39;;;;;;;7.57;6.00;;;;;;;;;;4823155;29;20495;-80
2023/04/24 02:35:05;;;;;;;6.55;5.85;;;;;;;;;;4822422;29;20053;-80
2023/04/24 02:37:31;;;;;;;7.93;5.75;;;;;;;;;;4821262;29;20067;-80
2023/04/24 02:39:57;;;;;;;6.63;5.93;;;;;;;;;;4819126;29;20039;-81
2023/04/24 02:42:23;;;;;;;6.28;5.75;;;;;;;;;;4820332;29;20034;-80
2023/04/24 02:44:51;;;;;;;7.30;6.10;;;;;;;;;;4807479;29;20043;-80
2023/04/24 02:47:17;;;;;;;8.15;5.90;;;;;;;;;;4818932;29;20476;-80
2023/04/24 02:49:43;;;;;;;7.80;6.68;;;;;;;;;;4817485;29;20445;-80
2023/04/24 02:52:09;;;;;;;7.70;6.90;;;;;;;;;;4814963;29;20046;-80
2023/04/24 02:54:35;;;;;;;8.35;7.20;;;;;;;;;;4821812;29;20114;-79
2023/04/24 02:57:01;;;;;;;9.45;7.25;;;;;;;;;;4856771;29;20136;-79
2023/04/24 02:59:28;;;;;;;8.63;7.70;;;;;;;;;;4855325;29;20112;-79
2023/04/24 03:01:54;;;;;;;10.80;7.53;;;;;;;;;;4842988;29;20696;-80
2023/04/24 03:04:22;;;;;;;8.80;7.35;;;;;;;;;;4856177;29;20064;-81
2023/04/24 03:06:48;;;;;;;9.23;8.32;;;;;;;;;;4861078;29;20116;-81
2023/04/24 03:09:14;;;;;;;9.43;8.38;;;;;;;;;;4857597;29;20134;-81
2023/04/24 03:11:40;;;;;;;10.48;8.75;;;;;;;;;;4840589;29;20507;-82
2023/04/24 03:14:07;;;;;;;10.82;9.07;;;;;;;;;;4852696;29;20090;-80
2023/04/24 03:16:33;;;;;;;12.40;8.75;;;;;;;;;;4842661;29;20037;-81
2023/04/24 03:18:59;;;;;;;10.57;9.57;;;;;;;;;;4858861;29;20029;-80
2023/04/24 03:21:26;;;;;;;10.27;9.27;;;;;;;;;;4853528;29;20056;-79
2023/04/24 03:23:52;;;;;;;10.77;9.68;;;;;;;;;;4849393;29;20152;-79
2023/04/24 03:26:18;;;;;;;12.77;10.43;;;;;;;;;;4854454;29;20045;-81
2023/04/24 03:28:44;;;;;;;11.90;10.45;;;;;;;;;;4856187;29;20037;-80
2023/04/24 03:31:10;;;;;;;11.32;10.23;;;;;;;;;;4857458;29;20036;-81
2023/04/24 03:33:36;;;;;;;11.13;10.02;;;;;;;;;;4836251;29;20403;-80
2023/04/24 03:36:02;;;;;;;15.20;10.52;;;;;;;;;;4840856;29;20038;-81
2023/04/24 03:38:28;;;;;;;5.85;5.35;;;;;;;;;;4847042;29;20034;-80
2023/04/24 03:40:54;;;;;;;5.55;4.63;;;;;;;;;;4848165;29;20105;-81
2023/04/24 03:43:20;;;;;;;4.00;3.70;;;;;;;;;;4853215;29;20041;-81
2023/04/24 03:45:46;;;;;;;2.97;2.40;;;;;;;;;;4845915;29;20354;-81
2023/04/24 03:48:12;;;;;;;2.20;2.00;;;;;;;;;;4840635;29;20022;-81
2023/04/24 03:50:38;;;;;;;2.55;2.35;;;;;;;;;;4857457;29;20045;-79
2023/04/24 03:53:05;;;;;;;1.30;1.20;;;;;;;;;;4857384;29;20383;-80
2023/04/24 03:55:31;;;;;;;1.58;1.17;;;;;;;;;;4856697;29;20106;-80
2023/04/24 03:58:00;;;;;;;1.10;1.00;;;;;;;;;;4860350;29;20033;-80
2023/04/24 04:00:26;;;;;;;1.38;1.08;;;;;;;;;;4839053;29;20045;-80
2023/04/24 04:02:53;;;;;;;0.95;0.90;;;;;;;;;;4846465;29;20440;-80
2023/04/24 04:05:19;;;;;;;1.65;0.85;;;;;;;;;;4849206;29;20048;-81
2023/04/24 04:07:46;;;;;;;3.35;0.75;;;;;;;;;;4851492;29;20670;-81
2023/04/24 04:10:12;;;;;;;1.00;0.90;;;;;;;;;;4854432;29;20026;-81
2023/04/24 04:12:39;;;;;;;1.02;0.82;;;;;;;;;;4857542;29;20052;-81
2023/04/24 04:15:06;;;;;;;0.98;0.98;;;;;;;;;;4855092;29;20129;-81
2023/04/24 04:17:32;;;;;;;2.28;0.90;;;;;;;;;;4857360;29;20088;-81
2023/04/24 04:19:58;;;;;;;0.90;0.90;;;;;;;;;;4850051;29;20052;-80
2023/04/24 04:22:25;;;;;;;1.33;1.08;;;;;;;;;;4858626;29;20062;-80
2023/04/24 04:24:51;;;;;;;1.20;1.10;;;;;;;;;;4852609;29;20071;-80
2023/04/24 04:27:18;;;;;;;3.15;1.15;;;;;;;;;;4851031;29;20505;-80
2023/04/24 04:29:44;;;;;;;2.20;1.58;;;;;;;;;;4847000;29;20040;-80
2023/04/24 04:32:10;;;;;;;2.05;1.58;;;;;;;;;;4856674;29;20064;-80
2023/04/24 04:34:37;;;;;;;2.10;1.90;;;;;;;;;;4857000;29;20079;-80
2023/04/24 04:37:03;;;;;;;3.22;2.22;;;;;;;;;;4856899;29;20084;-80
2023/04/24 04:39:30;;;;;;;2.35;1.95;;;;;;;;;;4855946;29;20077;-80
2023/04/24 04:41:56;;;;;;;6.25;2.53;;;;;;;;;;4853528;29;20441;-80
2023/04/24 04:44:23;;;;;;;3.15;2.30;;;;;;;;;;4858110;29;20059;-80
2023/04/24 04:46:49;;;;;;;1.95;1.85;;;;;;;;;;4854504;29;20475;-80
2023/04/24 04:49:16;;;;;;;3.60;2.17;;;;;;;;;;4852177;29;20551;-80
2023/04/24 04:51:42;;;;;;;2.92;2.25;;;;;;;;;;4854314;29;20132;-80
2023/04/24 04:54:08;;;;;;;2.95;2.20;;;;;;;;;;4842429;29;20116;-79
2023/04/24 04:56:35;;;;;;;6.20;2.40;;;;;;;;;;4844504;29;20057;-78
2023/04/24 05:01:33;;;;;;;3.83;3.03;;;;;;;;;;4827239;29;20054;-82
2023/04/24 05:03:59;;;;;;;4.32;3.47;;;;;;;;;;4817804;29;20037;-81
2023/04/24 05:06:27;;;;;;;3.60;3.30;;;;;;;;;;4813555;29;20054;-81
2023/04/24 05:08:56;;;;;;;5.40;4.10;;;;;;;;;;4827310;29;20018;-86
2023/04/24 05:11:23;;;;;;;4.25;3.70;;;;;;;;;;4930833;24;20053;-84
2023/04/24 05:13:49;;;;;;;5.40;4.13;;;;;;;;;;4868962;29;20042;-87
2023/04/24 05:16:27;;;;;;;7.25;4.35;;;;;;;;;;4852131;29;20029;-85
2023/04/24 05:18:53;;;;;;;7.65;4.10;;;;;;;;;;4852469;29;20034;-85
2023/04/24 05:21:19;;;;;;;5.97;4.10;;;;;;;;;;4855353;29;20042;-83
2023/04/24 05:23:45;;;;;;;6.43;3.85;;;;;;;;;;4863381;29;20038;-84
2023/04/24 05:26:11;;;;;;;6.68;4.10;;;;;;;;;;4855848;29;20502;-81
2023/04/24 05:28:37;;;;;;;6.63;3.90;;;;;;;;;;4848040;29;20037;-80
2023/04/24 05:31:04;;;;;;;7.72;3.65;;;;;;;;;;4858435;29;20037;-88
2023/04/24 05:33:30;;;;;;;5.75;3.70;;;;;;;;;;4856440;29;20038;-83
2023/04/24 05:35:56;;;;;;;4.50;3.85;;;;;;;;;;4848325;29;20090;-80
2023/04/24 05:38:22;;;;;;;9.77;4.90;;;;;;;;;;4857432;29;20038;-87
2023/04/24 05:40:48;;;;;;;5.80;4.35;;;;;;;;;;4862598;29;20037;-87
2023/04/24 05:43:14;;;;;;;7.65;4.97;;;;;;;;;;4861220;29;20046;-85
2023/04/24 05:45:40;;;;;;;10.15;6.13;;;;;;;;;;4864397;29;20112;-83
2023/04/24 05:48:06;;;;;;;9.23;5.60;;;;;;;;;;4862552;29;20033;-88
2023/04/24 05:50:32;;;;;;;6.82;5.22;;;;;;;;;;4852772;29;20034;-86
2023/04/24 05:52:58;;;;;;;12.07;4.63;;;;;;;;;;4853217;29;20041;-85
2023/04/24 05:55:27;;;;;;;8.73;4.25;;;;;;;;;;4857059;29;20154;-86
2023/04/24 05:57:53;;;;;;;6.90;4.38;;;;;;;;;;4862801;29;20062;-82
2023/04/24 06:00:19;;;;;;;16.65;10.00;;;;;;;;;;4852025;29;20037;-81
2023/04/24 06:02:46;;;;;;;6.43;4.53;;;;;;;;;;4855349;29;20037;-81
2023/04/24 06:05:12;;;;;;;6.38;3.92;;;;;;;;;;4852778;29;20033;-81
2023/04/24 06:07:38;;;;;;;4.50;2.63;;;;;;;;;;4856434;29;20049;-80
2023/04/24 06:10:04;;;;;;;4.43;2.50;;;;;;;;;;4861044;29;20022;-86
2023/04/24 06:12:31;;;;;;;5.57;2.75;;;;;;;;;;4874686;23;20070;-90
2023/04/24 06:14:57;;;;;;;5.03;2.33;;;;;;;;;;4921932;24;20069;-83
2023/04/24 06:17:22;;;;;;;2.20;2.00;;;;;;;;;;4837930;29;20041;-83
2023/04/24 06:19:49;;;;;;;3.78;1.90;;;;;;;;;;4847668;29;20038;-93
2023/04/24 06:22:15;;;;;;;3.58;1.77;;;;;;;;;;4845455;29;20437;-92
2023/04/24 06:24:41;;;;;;;4.70;1.58;;;;;;;;;;4850104;29;20102;-86
2023/04/24 06:27:07;;;;;;;3.65;1.30;;;;;;;;;;4840984;29;20475;-80
2023/04/24 06:29:34;;;;;;;5.38;1.58;;;;;;;;;;4837799;29;20479;-81
2023/04/24 06:32:00;;;;;;;5.20;1.33;;;;;;;;;;4825793;29;20038;-81
2023/04/24 06:34:26;;;;;;;4.88;1.27;;;;;;;;;;4833153;29;20030;-77
2023/04/24 06:36:52;;;;;;;4.78;1.48;;;;;;;;;;4827425;29;20112;-81
2023/04/24 06:39:18;;;;;;;5.75;1.52;;;;;;;;;;4835808;29;20033;-81
2023/04/24 06:41:44;;;;;;;4.05;1.52;;;;;;;;;;4834844;29;20029;-81
2023/04/24 06:44:10;;;;;;;5.43;1.73;;;;;;;;;;4837374;29;20033;-83
2023/04/24 06:46:36;;;;;;;6.15;2.10;;;;;;;;;;4832862;29;20124;-81
2023/04/24 06:49:02;;;;;;;3.60;1.83;;;;;;;;;;4836831;29;20034;-80
2023/04/24 06:51:28;;;;;;;5.78;2.30;;;;;;;;;;4837722;29;20034;-75
2023/04/24 06:53:56;;;;;;;7.28;2.45;;;;;;;;;;4846015;29;20025;-85
2023/04/24 06:56:22;;;;;;;6.88;2.05;;;;;;;;;;4854383;29;20026;-91
2023/04/24 06:58:48;;;;;;;2.85;1.80;;;;;;;;;;4849043;29;20029;-92
2023/04/24 07:01:14;;;;;;;10.77;2.03;;;;;;;;;;4837981;29;20029;-79
2023/04/24 07:03:40;;;;;;;7.90;2.08;;;;;;;;;;4835398;29;20041;-79
2023/04/24 07:06:06;;;;;;;10.02;2.25;;;;;;;;;;4834557;29;20102;-79
2023/04/24 07:08:32;;;;;;;8.38;2.47;;;;;;;;;;4850610;29;20453;-87
2023/04/24 07:10:59;;;;;;;7.20;3.35;;;;;;;;;;4841378;29;20121;-89
2023/04/24 07:13:26;;;;;;;13.65;5.05;;;;;;;;;;4843711;29;20025;-89
2023/04/24 07:15:53;;;;;;;11.18;4.97;;;;;;;;;;4876976;29;20029;-83
2023/04/24 07:18:20;;;;;;;8.13;4.40;;;;;;;;;;4845573;29;20056;-85
2023/04/24 07:20:46;;;;;;;10.50;5.78;;;;;;;;;;4863834;29;20077;-86
2023/04/24 07:23:12;;;;;;;13.70;7.35;;;;;;;;;;4872882;29;20029;-84
2023/04/24 07:25:39;;;;;;;16.13;8.05;;;;;;;;;;4882131;29;20102;-83
2023/04/24 07:28:05;;;;;;;17.35;8.85;;;;;;;;;;4862153;29;20018;-83
2023/04/24 07:30:32;;;;;;;19.77;9.77;;;;;;;;;;4865467;29;20079;-83
2023/04/24 07:32:58;;;;;;;19.08;10.50;;;;;;;;;;4855807;29;20032;-83
2023/04/24 07:35:25;;;;;;;18.55;10.65;;;;;;;;;;4852572;29;20042;-86
2023/04/24 07:37:52;;;;;;;18.90;10.57;;;;;;;;;;4855309;29;20065;-82
2023/04/24 07:40:20;;;;;;;14.02;9.63;;;;;;;;;;4856398;29;20030;-79
2023/04/24 07:42:48;;;;;;;19.77;8.23;;;;;;;;;;4869799;29;20036;-83
2023/04/24 07:45:14;;;;;;;14.80;8.80;;;;;;;;;;4862293;29;20036;-82
2023/04/24 07:47:43;;;;;;;14.70;8.77;;;;;;;;;;4846836;29;20034;-84
2023/04/24 07:50:10;;;;;;;16.23;8.02;;;;;;;;;;4854284;29;20371;-83
2023/04/24 07:52:36;;;;;;;18.38;8.63;;;;;;;;;;4847633;29;20030;-83
2023/04/24 07:55:02;;;;;;;19.58;9.35;;;;;;;;;;4856073;29;20056;-79
2023/04/24 07:57:28;;;;;;;17.00;10.00;;;;;;;;;;4853878;29;20034;-79
2023/04/24 07:59:55;;;;;;;16.27;10.48;;;;;;;;;;4867735;29;20076;-82
2023/04/24 08:02:26;;;;;;;20.73;11.60;;;;;;;;;;4860498;29;20037;-83
2023/04/24 08:04:52;;;;;;;21.60;11.13;;;;;;;;;;4864108;29;20060;-82
2023/04/24 08:07:18;;;;;;;20.73;11.75;;;;;;;;;;4845557;29;20056;-76
2023/04/24 08:09:44;;;;;;;24.98;11.65;;;;;;;;;;4841405;29;20438;-74
2023/04/24 08:12:10;;;;;;;16.83;10.20;;;;;;;;;;4844750;29;20033;-74
2023/04/24 08:14:36;;;;;;;18.40;10.50;;;;;;;;;;4859170;29;20056;-74
2023/04/24 08:17:03;;;;;;;17.48;9.40;;;;;;;;;;4851404;29;20547;-79
2023/04/24 08:19:29;;;;;;;16.67;8.55;;;;;;;;;;4841221;29;20078;-77
2023/04/24 08:21:55;;;;;;;16.90;9.00;;;;;;;;;;4855942;29;20034;-77
2023/04/24 08:24:21;;;;;;;12.85;8.00;;;;;;;;;;4853130;29;20041;-78
2023/04/24 08:26:51;;;;;;;12.35;6.43;;;;;;;;;;4855051;29;20038;-79
2023/04/24 08:29:17;;;;;;;12.15;5.85;;;;;;;;;;4839581;29;20438;-79
2023/04/24 08:31:43;;;;;;;11.88;5.80;;;;;;;;;;4857327;29;20471;-79
2023/04/24 08:34:10;;;;;;;11.27;6.00;;;;;;;;;;4852486;29;20041;-78
2023/04/24 08:36:40;;;;;;;13.40;5.40;;;;;;;;;;4856322;29;20041;-78
2023/04/24 08:39:06;;;;;;;12.20;5.53;;;;;;;;;;4848512;29;20029;-79
2023/04/24 08:41:33;;;;;;;15.20;4.90;;;;;;;;;;4863888;29;20025;-79
2023/04/24 08:43:59;;;;;;;9.10;5.30;;;;;;;;;;4838640;29;20037;-78
2023/04/24 08:46:25;;;;;;;10.02;4.60;;;;;;;;;;4853178;29;20057;-79
2023/04/24 08:48:52;;;;;;;9.50;5.10;;;;;;;;;;4844939;29;20315;-78
2023/04/24 08:51:19;;;;;;;14.98;6.25;;;;;;;;;;4858949;29;20477;-78
2023/04/24 08:53:45;;;;;;;12.10;5.30;;;;;;;;;;4845217;29;20060;-77
2023/04/24 08:56:12;;;;;;;11.52;4.47;;;;;;;;;;4852786;29;20034;-79
2023/04/24 08:58:39;;;;;;;13.55;7.00;;;;;;;;;;4844215;29;20025;-78
2023/04/24 09:01:05;;;;;;;12.88;5.18;;;;;;;;;;4857288;29;20025;-78
2023/04/24 09:03:31;;;;;;;16.23;5.82;;;;;;;;;;4846338;29;20038;-79
2023/04/24 09:05:58;;;;;;;11.15;4.82;;;;;;;;;;4857647;29;20048;-79
2023/04/24 09:08:25;;;;;;;11.68;4.80;;;;;;;;;;4846446;29;20054;-80
2023/04/24 09:10:51;;;;;;;13.73;4.15;;;;;;;;;;4858484;29;20112;-79
2023/04/24 09:13:17;;;;;;;10.52;3.80;;;;;;;;;;4844181;29;20033;-79
2023/04/24 09:15:43;;;;;;;12.75;3.35;;;;;;;;;;4856914;29;20082;-79
2023/04/24 09:18:09;;;;;;;10.25;3.88;;;;;;;;;;4854030;29;20054;-80
2023/04/24 09:20:36;;;;;;;11.63;3.67;;;;;;;;;;4852491;29;21771;-79
2023/04/24 09:23:02;;;;;;;6.20;2.63;;;;;;;;;;4836744;29;20045;-78
2023/04/24 09:25:37;;;;;;;7.40;3.35;;;;;;;;;;4860356;29;20522;-78
2023/04/24 09:28:04;;;;;;;7.78;2.78;;;;;;;;;;4853389;29;20101;-79
2023/04/24 09:30:31;;;;;;;9.63;3.70;;;;;;;;;;4856410;29;20032;-79
2023/04/24 09:33:13;;;;;;;8.88;3.70;;;;;;;;;;4848501;29;20038;-79
2023/04/24 09:35:43;;;;;;;8.32;2.47;;;;;;;;;;4838654;29;20038;-79
2023/04/24 09:38:10;;;;;;;7.38;2.55;;;;;;;;;;4846303;29;20037;-79
2023/04/24 09:40:37;;;;;;;11.23;2.75;;;;;;;;;;4850171;29;20061;-79
2023/04/24 09:43:03;;;;;;;14.88;2.85;;;;;;;;;;4852308;29;20044;-79
2023/04/24 09:45:36;;;;;;;7.32;2.08;;;;;;;;;;4857852;29;20037;-79
2023/04/24 09:48:02;;;;;;;9.52;2.65;;;;;;;;;;4856828;29;20057;-78
2023/04/24 09:50:31;;;;;;;13.35;2.60;;;;;;;;;;4850428;29;20039;-80
2023/04/24 09:53:10;;;;;;;14.75;2.58;;;;;;;;;;4850156;29;20495;-80
2023/04/24 09:55:40;;;;;;;13.43;3.05;;;;;;;;;;4852837;29;20098;-81
2023/04/24 09:58:09;;;;;;;7.95;2.13;;;;;;;;;;4856086;29;20021;-81
2023/04/24 10:00:36;;;;;;;11.90;2.50;;;;;;;;;;4853761;29;20030;-78
2023/04/24 10:03:06;;;;;;;8.80;2.28;;;;;;;;;;4837985;29;20041;-80
2023/04/24 10:05:36;;;;;;;18.83;3.65;;;;;;;;;;4856992;29;20045;-80
2023/04/24 10:08:08;;;;;;;12.20;2.60;;;;;;;;;;4849133;29;20467;-79
2023/04/24 10:10:36;;;;;;;8.40;2.20;;;;;;;;;;4832717;29;20090;-78
2023/04/24 10:13:02;;;;;;;11.48;2.42;;;;;;;;;;4841619;29;20496;-78
2023/04/24 10:15:28;;;;;;;11.50;3.60;;;;;;;;;;4859686;29;20101;-78
2023/04/24 10:17:54;;;;;;;13.30;2.50;;;;;;;;;;4863761;29;20102;-79
2023/04/24 10:20:27;;;;;;;12.32;2.83;;;;;;;;;;4849803;29;20052;-81
2023/04/24 10:22:54;;;;;;;11.23;2.55;;;;;;;;;;4853263;29;20041;-77
2023/04/24 10:25:21;;;;;;;8.57;2.78;;;;;;;;;;4862410;29;20038;-79
2023/04/24 10:27:48;;;;;;;11.32;2.85;;;;;;;;;;4855314;29;20030;-79
2023/04/24 10:30:15;;;;;;;13.10;2.97;;;;;;;;;;4833419;29;20391;-80
2023/04/24 10:32:44;;;;;;;12.90;2.25;;;;;;;;;;4858933;29;20021;-78
2023/04/24 10:35:12;;;;;;;12.15;2.65;;;;;;;;;;4879135;29;20112;-77
2023/04/24 10:37:39;;;;;;;13.75;2.15;;;;;;;;;;4859865;29;20051;-76
2023/04/24 10:40:07;;;;;;;15.90;2.20;;;;;;;;;;4859908;29;20042;-81
2023/04/24 10:42:35;;;;;;;11.85;2.38;;;;;;;;;;4855923;29;20018;-79
2023/04/24 10:45:05;;;;;;;14.88;2.00;;;;;;;;;;4848659;29;20049;-79
2023/04/24 10:47:39;;;;;;;8.30;2.13;;;;;;;;;;4851642;29;20435;-80
2023/04/24 10:50:08;;;;;;;8.85;1.60;;;;;;;;;;4849645;29;20074;-81
2023/04/24 10:52:47;;;;;;;10.18;2.03;;;;;;;;;;4856124;29;20049;-78
2023/04/24 10:55:16;;;;;;;7.10;1.48;;;;;;;;;;4851666;29;20034;-79
2023/04/24 10:58:01;;;;;;;8.45;1.60;;;11.20;99.90;;;;;;4850160;29;20510;-79
2023/04/24 11:00:27;;;;;;;8.70;1.70;;;;;;;;;;4859433;29;20041;-77
2023/04/24 11:02:53;;;;;;;13.07;1.67;;;;;;;;;;4853939;29;20037;-80
2023/04/24 11:05:20;;;;;;;9.40;2.55;;;;;;;;;;4853024;29;20066;-77
2023/04/24 11:08:05;;;;;;;12.23;2.40;;;;;;;;;;4852106;29;20061;-79
2023/04/24 11:10:31;;;;;;;8.75;1.90;;;;;;;;;;4849046;29;20052;-81
2023/04/24 11:12:57;;;;;;;6.43;1.77;;;;;;;;;;4857961;29;20423;-81
2023/04/24 11:15:23;;;;;;;8.52;2.03;;;;;;;;;;4857761;29;20095;-81
2023/04/24 11:17:50;;;;;;;6.60;1.60;;;;;;;;;;4865592;29;20033;-81
2023/04/24 11:20:18;;;;;;;5.80;1.42;;;;;;;;;;4845997;29;20044;-80
2023/04/24 11:22:44;;;;;;;4.28;1.67;;;;;;;;;;4861867;29;20033;-81
2023/04/24 11:25:11;;;;;;;8.05;1.70;;;;;;;;;;4859565;29;20410;-81
2023/04/24 11:27:41;;;;;;;4.38;1.20;;;;;;;;;;4868429;29;20053;-81
2023/04/24 11:30:08;;;;;;;6.75;1.58;;;;;;;;;;4873184;29;20033;-81
2023/04/24 11:32:34;;;;;;;5.95;1.25;;;;;;;;;;4878234;29;20032;-81
2023/04/24 11:35:05;;;;;;;11.57;1.63;;;;;;;;;;4842666;29;20038;-81
2023/04/24 11:37:36;;;;;;;5.47;1.38;;;;;;;;;;4845348;29;20024;-81
2023/04/24 11:40:03;;;;;;;5.88;1.40;;;;;;;;;;4857433;29;20423;-80
2023/04/24 11:42:29;;;;;;;5.93;1.05;;;;;;;;;;4860129;29;20025;-81
2023/04/24 11:44:56;;;;;;;8.20;0.93;;;;;;;;;;4842308;29;20118;-81
2023/04/24 11:47:33;;;;;;;4.82;1.50;;;;;;;;;;4857731;29;20045;-80
2023/04/24 11:50:02;;;;;;;4.60;1.10;;;;;;;;;;4858054;29;20033;-80
2023/04/24 11:52:29;;;;;;;6.00;1.10;;;;;;;;;;4858333;29;20403;-80
2023/04/24 11:54:55;;;;;;;8.55;2.00;;;;;;;;;;4843684;29;20041;-80
2023/04/24 11:57:22;;;;;;;4.15;1.00;;;;;;;;;;4849358;29;20049;-81
2023/04/24 11:59:48;;;;;;;5.70;1.45;;;;;;;;;;4852758;29;20057;-81
2023/04/24 12:02:24;;;;;;;4.35;1.63;;;;;;;;;;4854013;29;20041;-81
2023/04/24 12:04:50;;;;;;;7.40;1.50;;;;;;;;;;4842253;29;20069;-81
2023/04/24 12:07:16;;;;;;;5.78;1.35;;;;;;;;;;4860382;29;20097;-81
2023/04/24 12:09:43;;;;;;;4.65;0.98;;;;;;;;;;4845464;29;20044;-80
2023/04/24 12:12:09;;;;;;;6.75;1.33;;;;;;;;;;4829708;29;20034;-81
2023/04/24 12:14:49;;;;;;;6.80;1.10;;;;;;;;;;4856455;29;20093;-84
2023/04/24 12:17:16;;;;;;;4.13;1.25;;;;;;;;;;4838591;29;20125;-81
2023/04/24 12:19:51;;;;;;;7.75;0.93;;;;;;;;;;4822354;29;20427;-80
2023/04/24 12:22:17;;;;;;;6.32;1.13;;;;;;;;;;4808433;29;20030;-81
2023/04/24 12:25:03;;;;;;;4.95;0.85;;;;;;;;;;4829494;29;20038;-80
2023/04/24 12:27:31;;;;;;;6.93;1.00;;;;;;;;;;4838409;29;20052;-80
2023/04/24 12:29:57;;;;;;;9.95;1.45;;;;;;;;;;4831437;29;20019;-81
2023/04/24 12:32:25;;;;;;;10.07;1.38;;;;;;;;;;4836131;29;20042;-80
2023/04/24 12:34:51;;;;;;;11.27;1.23;;;;;;;;;;4808408;29;20133;-80
2023/04/24 12:37:18;;;;;;;8.77;1.88;;;;;;;;;;4804950;29;20030;-80
2023/04/24 12:40:02;;;;;;;9.10;1.65;;;11.90;99.90;;;;;;4810818;29;20605;-80
2023/04/24 12:42:29;;;;;;;9.05;1.73;;;;;;;;;;4812066;29;20034;-80
2023/04/24 12:45:14;;;;;;;3.03;0.63;;;;;;;;;;4818852;29;20050;-80
2023/04/24 12:47:41;;;;;;;2.45;0.68;;;;;;;;;;4819716;29;20042;-80
2023/04/24 12:50:08;;;;;;;5.35;0.88;;;;;;;;;;4821964;29;20030;-81
2023/04/24 12:52:34;;;;;;;3.90;0.73;;;;;;;;;;4819521;29;20095;-81
2023/04/24 12:55:00;;;;;;;9.75;0.77;;;;;;;;;;4791595;29;20421;-77
2023/04/24 12:57:27;;;;;;;2.75;0.85;;;;;;;;;;4804991;29;20045;-81
2023/04/24 12:59:55;;;;;;;8.07;1.17;;;;;;;;;;4811183;29;20038;-81
2023/04/24 13:02:22;;;;;;;4.45;0.60;;;;;;;;;;4815426;29;20038;-79
2023/04/24 13:04:48;;;;;;;3.28;0.82;;;;;;;;;;4809538;29;20400;-80
2023/04/24 13:07:15;;;;;;;2.00;0.52;;;;;;;;;;4812540;29;20450;-83
2023/04/24 13:09:41;;;;;;;7.07;3.05;;;;;;;;;;4816292;29;20034;-84
2023/04/24 13:12:08;;;;;;;2.97;0.95;;;;;;;;;;4827828;29;20085;-76
2023/04/24 13:14:35;;;;;;;4.70;0.88;;;;;;;;;;4816308;29;20125;-82
2023/04/24 13:17:01;;;;;;;3.45;0.60;;;;;;;;;;4850900;29;20046;-81
2023/04/24 13:19:27;;;;;;;5.70;1.33;;;;;;;;;;4846885;29;20501;-79
2023/04/24 13:21:55;;;;;;;5.85;0.93;;;;;;;;;;4849218;29;20436;-77
2023/04/24 13:24:24;;;;;;;4.35;0.85;;;;;;;;;;4852407;29;20246;-77
2023/04/24 13:26:50;;;;;;;2.92;0.88;;;;;;;;;;4851166;29;20175;-79
2023/04/24 13:29:16;;;;;;;5.13;1.15;;;;;;;;;;4853635;29;20028;-80
2023/04/24 13:31:42;;;;;;;6.55;1.60;;;;;;;;;;4848486;29;20034;-81
2023/04/24 13:34:08;;;;;;;8.50;2.30;;;;;;;;;;4859012;29;20073;-79
2023/04/24 13:36:35;;;;;;;22.98;2.00;;;;;;;;;;4852274;29;20505;-82
2023/04/24 13:39:01;;;;;;;15.40;2.35;;;;;;;;;;4849291;29;20736;-83
2023/04/24 13:41:27;;;;;;;10.05;1.83;;;;;;;;;;4854962;29;20021;-80
2023/04/24 13:43:53;;;;;;;9.85;1.80;;;;;;;;;;4851918;29;20048;-78
2023/04/24 13:46:19;;;;;;;12.93;2.03;;;;;;;;;;4852832;29;20086;-82
2023/04/24 13:48:45;;;;;;;17.13;3.45;;;;;;;;;;4848800;29;20049;-80
2023/04/24 13:51:11;;;;;;;17.33;2.35;;;;;;;;;;4854901;29;20048;-80
2023/04/24 13:53:38;;;;;;;5.97;1.67;;;;;;;;;;4854891;29;20387;-80
2023/04/24 13:56:05;;;;;;;16.35;2.55;;;;;;;;;;4848064;29;20048;-79
2023/04/24 13:58:32;;;;;;;8.80;1.80;;;;;;;;;;4852851;29;20052;-78
2023/04/24 14:00:58;;;;;;;10.30;2.22;;;;;;;;;;4857861;29;20443;-76
2023/04/24 14:03:24;;;;;;;12.82;3.35;;;;;;;;;;4851311;29;20124;-77
2023/04/24 14:05:51;;;;;;;13.32;2.53;;;;;;;;;;4853597;29;20038;-78
2023/04/24 14:08:17;;;;;;;21.38;3.47;;;;;;;;;;4860135;29;20037;-82
2023/04/24 14:10:43;;;;;;;15.65;2.92;;;;;;;;;;4842800;29;20033;-79
2023/04/24 14:13:09;;;;;;;14.80;3.78;;;;;;;;;;4862261;29;20033;-82
2023/04/24 14:15:36;;;;;;;12.85;2.80;;;;;;;;;;4861316;29;20049;-81
2023/04/24 14:18:02;;;;;;;11.85;2.45;;;;;;;;;;4846177;29;20443;-83
2023/04/24 14:20:28;;;;;;;14.00;2.75;;;;;;;;;;4855734;29;20359;-82
2023/04/24 14:22:55;;;;;;;14.52;2.58;;;;;;;;;;4845657;29;20040;-82
2023/04/24 14:25:22;;;;;;;17.75;2.47;;;;;;;;;;4833960;29;20045;-82
2023/04/24 14:27:49;;;;;;;15.88;2.95;;;;;;;;;;4861148;29;20085;-82
2023/04/24 14:30:15;;;;;;;10.60;2.08;;;;;;;;;;4869837;29;20041;-82
2023/04/24 14:32:42;;;;;;;8.98;2.33;;;;;;;;;;4871160;29;20033;-81
2023/04/24 14:35:08;;;;;;;17.27;2.47;;;;;;;;;;4841828;29;20407;-83
2023/04/24 14:37:35;;;;;;;17.00;2.95;;;;;;;;;;4871874;29;20037;-84
2023/04/24 14:40:01;;;;;;;15.32;3.20;;;;;;;;;;4852779;29;20022;-83